createdAt,value
2018-04-20T00:02:16.684Z,64.86
2018-04-20T00:04:44.387Z,65.28
2018-04-20T00:07:12.961Z,65.52
2018-04-20T00:09:40.629Z,65.32
2018-04-20T00:12:08.254Z,65.22
2018-04-20T00:14:35.817Z,65.34
2018-04-20T00:17:03.362Z,65.31
2018-04-20T00:19:31.394Z,65.37
2018-04-20T00:21:59.046Z,65.57
2018-04-20T00:24:26.659Z,65.86
2018-04-20T00:26:54.159Z,65.71
2018-04-20T00:29:21.759Z,65.87
2018-04-20T00:31:49.434Z,66.49
2018-04-20T00:34:17.033Z,66.66
2018-04-20T00:36:44.587Z,66.49
2018-04-20T00:39:12.108Z,66.71
2018-04-20T00:41:39.602Z,66.77
2018-04-20T00:44:07.320Z,66.77
2018-04-20T00:46:34.866Z,66.44
2018-04-20T00:49:03.273Z,66.14
2018-04-20T00:51:30.958Z,66.00
2018-04-20T00:54:10.366Z,66.03
2018-04-20T00:56:37.896Z,67.15
2018-04-20T00:59:05.601Z,67.07
2018-04-20T01:01:34.455Z,67.47
2018-04-20T01:04:02.140Z,67.18
2018-04-20T01:06:29.732Z,67.11
2018-04-20T01:08:57.258Z,67.49
2018-04-20T01:11:24.836Z,67.58
2018-04-20T01:13:52.357Z,67.71
2018-04-20T01:16:19.891Z,67.98
2018-04-20T01:18:47.422Z,67.92
2018-04-20T01:21:15.126Z,68.03
2018-04-20T01:23:42.818Z,67.70
2018-04-20T01:26:10.364Z,67.67
2018-04-20T01:28:37.896Z,67.88
2018-04-20T01:31:05.403Z,67.83
2018-04-20T01:33:33.001Z,68.15
2018-04-20T01:36:01.441Z,68.13
2018-04-20T01:38:29.064Z,68.39
2018-04-20T01:40:56.636Z,68.31
2018-04-20T01:43:24.196Z,68.62
2018-04-20T01:45:51.774Z,68.59
2018-04-20T01:48:19.440Z,68.69
2018-04-20T01:50:46.971Z,68.44
2018-04-20T01:53:14.514Z,68.68
2018-04-20T01:55:42.173Z,68.57
2018-04-20T01:58:09.805Z,68.35
2018-04-20T02:00:37.299Z,68.41
2018-04-20T02:03:04.866Z,68.45
2018-04-20T02:05:35.311Z,68.56
2018-04-20T02:08:02.996Z,68.52
2018-04-20T02:10:30.688Z,68.56
2018-04-20T02:12:58.343Z,68.87
2018-04-20T02:15:25.927Z,68.99
2018-04-20T02:17:53.503Z,69.77
2018-04-20T02:20:21.044Z,70.22
2018-04-20T02:22:48.627Z,70.49
2018-04-20T02:25:16.261Z,70.15
2018-04-20T02:27:43.900Z,69.76
2018-04-20T02:30:11.426Z,69.45
2018-04-20T02:32:38.944Z,69.50
2018-04-20T02:35:06.681Z,69.55
2018-04-20T02:37:34.408Z,69.83
2018-04-20T02:40:02.079Z,70.57
2018-04-20T02:42:29.647Z,70.55
2018-04-20T02:44:57.228Z,70.51
2018-04-20T02:47:24.836Z,70.23
2018-04-20T02:49:52.507Z,70.01
2018-04-20T02:52:20.383Z,70.24
2018-04-20T02:54:48.408Z,70.40
2018-04-20T02:57:16.448Z,70.81
2018-04-20T02:59:44.415Z,70.90
2018-04-20T03:02:12.027Z,70.86
2018-04-20T03:04:39.648Z,71.14
2018-04-20T03:07:07.304Z,71.19
2018-04-20T03:09:35.692Z,71.18
2018-04-20T03:12:03.350Z,71.19
2018-04-20T03:14:31.012Z,70.99
2018-04-20T03:16:58.605Z,71.09
2018-04-20T03:19:26.207Z,71.53
2018-04-20T03:21:53.899Z,71.70
2018-04-20T03:24:21.538Z,71.82
2018-04-20T03:26:49.167Z,71.75
2018-04-20T03:31:50.669Z,71.63
2018-04-20T03:34:18.338Z,71.97
2018-04-20T03:36:45.956Z,71.95
2018-04-20T03:39:13.603Z,72.24
2018-04-20T03:41:41.239Z,72.35
2018-04-20T03:44:08.910Z,72.06
2018-04-20T03:46:36.556Z,71.87
2018-04-20T03:49:04.185Z,71.97
2018-04-20T03:51:31.894Z,72.24
2018-04-20T03:53:59.464Z,72.62
2018-04-20T03:56:27.195Z,72.59
2018-04-20T03:58:54.883Z,72.51
2018-04-20T04:01:22.537Z,72.76
2018-04-20T04:03:50.200Z,72.64
2018-04-20T04:06:17.878Z,72.89
2018-04-20T04:08:45.538Z,72.75
2018-04-20T04:11:13.356Z,72.96
2018-04-20T04:13:41.062Z,73.27
2018-04-20T04:16:08.731Z,73.32
2018-04-20T04:18:48.153Z,73.13
2018-04-20T04:21:27.460Z,73.23
2018-04-20T04:24:07.654Z,73.80
2018-04-20T04:26:46.897Z,74.31
2018-04-20T04:29:14.448Z,74.14
2018-04-20T04:31:42.027Z,74.19
2018-04-20T04:34:11.535Z,74.09
2018-04-20T04:36:39.184Z,73.82
2018-04-20T04:39:06.810Z,74.00
2018-04-20T04:41:34.492Z,74.26
2018-04-20T04:44:02.166Z,74.59
2018-04-20T04:46:29.797Z,74.47
2018-04-20T04:48:57.443Z,74.57
2018-04-20T04:51:25.130Z,74.48
2018-04-20T04:53:52.734Z,74.41
2018-04-20T04:56:20.352Z,74.59
2018-04-20T04:58:47.973Z,74.13
2018-04-20T05:01:15.643Z,73.95
2018-04-20T05:03:43.169Z,74.04
2018-04-20T05:08:44.545Z,73.96
2018-04-20T05:11:13.947Z,73.99
2018-04-20T05:13:41.558Z,73.72
2018-04-20T05:16:09.226Z,73.66
2018-04-20T05:18:36.853Z,73.58
2018-04-20T05:21:04.537Z,73.44
2018-04-20T05:23:32.187Z,73.35
2018-04-20T05:25:59.931Z,73.15
2018-04-20T05:28:27.621Z,72.94
2018-04-20T05:30:55.206Z,72.77
2018-04-20T05:33:22.848Z,72.55
2018-04-20T05:35:50.451Z,72.47
2018-04-20T05:38:18.119Z,72.46
2018-04-20T05:40:45.741Z,72.60
2018-04-20T05:43:13.695Z,72.41
2018-04-20T05:45:41.460Z,72.33
2018-04-20T05:48:09.100Z,72.13
2018-04-20T05:50:36.831Z,71.67
2018-04-20T05:53:04.473Z,71.31
2018-04-20T05:55:32.080Z,70.89
2018-04-20T05:57:59.761Z,70.67
2018-04-20T06:00:27.489Z,70.24
2018-04-20T06:02:55.123Z,69.94
2018-04-20T06:05:22.838Z,70.11
2018-04-20T06:07:50.474Z,70.32
2018-04-20T06:10:18.165Z,70.33
2018-04-20T06:12:45.835Z,69.75
2018-04-20T06:15:14.533Z,69.63
2018-04-20T06:17:42.326Z,69.64
2018-04-20T06:20:09.950Z,69.42
2018-04-20T06:22:37.579Z,69.36
2018-04-20T06:25:05.369Z,69.46
2018-04-20T06:27:33.133Z,69.31
2018-04-20T06:30:00.794Z,68.98
2018-04-20T06:32:28.502Z,68.72
2018-04-20T06:34:56.168Z,68.55
2018-04-20T06:37:24.689Z,68.32
2018-04-20T06:39:52.986Z,68.53
2018-04-20T06:42:20.820Z,68.28
2018-04-20T06:44:48.431Z,68.06
2018-04-20T06:47:16.178Z,67.77
2018-04-20T06:49:43.965Z,67.80
2018-04-20T06:52:11.626Z,67.13
2018-04-20T06:54:39.392Z,66.90
2018-04-20T06:57:07.110Z,65.82
2018-04-20T06:59:35.479Z,65.31
2018-04-20T07:02:03.536Z,64.47
2018-04-20T07:04:31.215Z,64.11
2018-04-20T07:06:59.561Z,63.73
2018-04-20T07:09:28.191Z,63.39
2018-04-20T07:11:55.939Z,63.10
2018-04-20T07:14:23.574Z,62.26
2018-04-20T07:16:51.412Z,61.83
2018-04-20T07:19:19.069Z,61.77
2018-04-20T07:21:46.783Z,61.17
2018-04-20T07:24:15.474Z,60.76
2018-04-20T07:26:43.195Z,60.73
2018-04-20T07:29:11.884Z,57.43
2018-04-20T07:31:40.572Z,57.58
2018-04-20T07:34:08.244Z,57.44
2018-04-20T07:36:39.726Z,56.51
2018-04-20T07:39:07.408Z,55.39
2018-04-20T07:41:35.171Z,54.98
2018-04-20T07:44:02.794Z,54.27
2018-04-20T07:46:30.496Z,54.07
2018-04-20T07:48:58.166Z,53.33
2018-04-20T07:51:26.727Z,53.31
2018-04-20T07:56:28.678Z,54.00
2018-04-20T07:58:56.289Z,53.17
2018-04-20T08:01:23.908Z,52.39
2018-04-20T08:03:52.063Z,52.20
2018-04-20T08:06:20.122Z,52.56
2018-04-20T08:08:47.886Z,52.14
2018-04-20T08:11:15.580Z,51.73
2018-04-20T08:13:43.205Z,52.60
2018-04-20T08:16:10.906Z,51.97
2018-04-20T08:18:39.093Z,51.66
2018-04-20T08:21:06.814Z,50.84
2018-04-20T08:23:34.613Z,51.47
2018-04-20T08:26:02.294Z,50.74
2018-04-20T08:28:30.779Z,50.96
2018-04-20T08:30:59.356Z,51.38
2018-04-20T08:33:27.080Z,50.54
2018-04-20T08:35:54.708Z,49.34
2018-04-20T08:38:22.351Z,50.02
2018-04-20T08:40:49.992Z,49.68
2018-04-20T08:43:17.739Z,47.80
2018-04-20T08:45:45.404Z,49.51
2018-04-20T08:48:13.106Z,49.08
2018-04-20T08:50:41.841Z,47.87
2018-04-20T08:53:09.807Z,47.68
2018-04-20T08:55:37.593Z,48.40
2018-04-20T08:58:05.211Z,48.49
2018-04-20T09:00:32.906Z,47.65
2018-04-20T09:03:00.482Z,47.24
2018-04-20T09:05:28.155Z,46.94
2018-04-20T09:07:58.717Z,46.92
2018-04-20T09:13:01.209Z,46.16
2018-04-20T09:15:28.891Z,44.78
2018-04-20T09:17:56.637Z,44.64
2018-04-20T09:20:24.324Z,45.90
2018-04-20T09:22:52.588Z,45.77
2018-04-20T09:25:20.260Z,43.67
2018-04-20T09:27:48.965Z,44.36
2018-04-20T09:30:16.636Z,44.41
2018-04-20T09:32:44.319Z,42.54
2018-04-20T09:35:13.127Z,43.27
2018-04-20T09:37:40.904Z,42.31
2018-04-20T09:40:08.598Z,43.02
2018-04-20T09:42:37.389Z,42.46
2018-04-20T09:45:08.389Z,40.55
2018-04-20T09:47:36.049Z,40.24
2018-04-20T09:50:03.720Z,40.24
2018-04-20T09:52:31.337Z,39.86
2018-04-20T09:54:58.932Z,39.65
2018-04-20T09:57:26.591Z,40.67
2018-04-20T09:59:54.275Z,40.35
2018-04-20T10:02:32.920Z,39.93
2018-04-20T10:05:01.510Z,39.19
2018-04-20T10:07:29.125Z,39.70
2018-04-20T10:12:29.535Z,38.14
2018-04-20T10:14:57.177Z,39.09
2018-04-20T10:17:25.975Z,38.29
2018-04-20T10:19:53.663Z,40.06
2018-04-20T10:22:21.264Z,37.52
2018-04-20T10:24:48.899Z,38.51
2018-04-20T10:29:48.805Z,38.06
2018-04-20T10:32:16.454Z,37.29
2018-04-20T10:34:44.189Z,37.19
2018-04-20T10:37:12.035Z,36.66
2018-04-20T10:39:41.032Z,36.67
2018-04-20T10:42:08.743Z,36.40
2018-04-20T10:44:36.341Z,35.76
2018-04-20T10:47:04.930Z,36.32
2018-04-20T10:49:33.412Z,36.59
2018-04-20T10:52:01.080Z,35.71
2018-04-20T10:54:28.838Z,35.65
2018-04-20T10:56:56.445Z,35.85
2018-04-20T10:59:24.255Z,35.92
2018-04-20T11:01:51.949Z,35.06
2018-04-20T11:04:19.737Z,35.68
2018-04-20T11:06:47.336Z,36.01
2018-04-20T11:09:16.090Z,35.97
2018-04-20T11:11:44.705Z,34.98
2018-04-20T11:14:13.285Z,35.67
2018-04-20T11:16:40.915Z,34.67
2018-04-20T11:19:16.310Z,34.16
2018-04-20T11:21:45.983Z,33.71
2018-04-20T11:24:13.677Z,35.16
2018-04-20T11:26:43.052Z,35.06
2018-04-20T11:29:14.147Z,35.17
2018-04-20T11:31:46.689Z,35.50
2018-04-20T11:34:15.860Z,34.12
2018-04-20T11:36:44.313Z,34.67
2018-04-20T11:39:13.262Z,35.19
2018-04-20T11:41:46.153Z,32.87
2018-04-20T11:44:14.699Z,33.25
2018-04-20T11:46:42.354Z,32.50
2018-04-20T11:49:10.104Z,31.99
2018-04-20T11:51:38.882Z,31.19
2018-04-20T11:54:20.331Z,30.95
2018-04-20T11:56:47.996Z,31.27
2018-04-20T11:59:15.662Z,31.58
2018-04-20T12:01:49.884Z,31.76
2018-04-20T12:04:17.613Z,32.15
2018-04-20T12:06:45.361Z,31.99
2018-04-20T12:09:23.026Z,31.25
2018-04-20T12:11:51.929Z,31.39
2018-04-20T12:14:21.082Z,30.17
2018-04-20T12:16:50.418Z,29.43
2018-04-20T12:19:18.932Z,30.27
2018-04-20T12:21:47.465Z,29.84
2018-04-20T12:24:15.720Z,29.95
2018-04-20T12:26:43.391Z,29.26
2018-04-20T12:29:12.589Z,29.19
2018-04-20T12:31:41.471Z,29.68
2018-04-20T12:34:10.583Z,29.75
2018-04-20T12:36:38.250Z,29.33
2018-04-20T12:39:07.284Z,28.97
2018-04-20T12:41:41.896Z,29.01
2018-04-20T12:44:12.273Z,28.63
2018-04-20T12:46:39.869Z,28.62
2018-04-20T12:49:07.575Z,27.59
2018-04-20T12:51:35.388Z,27.86
2018-04-20T12:54:03.035Z,28.22
2018-04-20T12:56:30.722Z,27.87
2018-04-20T12:58:58.413Z,27.30
2018-04-20T13:01:26.023Z,26.86
2018-04-20T13:03:54.388Z,28.59
2018-04-20T13:06:22.009Z,27.17
2018-04-20T13:08:49.773Z,27.43
2018-04-20T13:11:17.349Z,27.97
2018-04-20T13:13:45.010Z,28.05
2018-04-20T13:16:13.596Z,27.05
2018-04-20T13:18:41.280Z,27.28
2018-04-20T13:21:08.899Z,25.51
2018-04-20T13:23:36.641Z,24.87
2018-04-20T13:26:05.439Z,25.38
2018-04-20T13:28:33.165Z,24.75
2018-04-20T13:31:02.797Z,25.19
2018-04-20T13:33:30.464Z,24.67
2018-04-20T13:35:58.227Z,25.20
2018-04-20T13:38:26.182Z,23.06
2018-04-20T13:40:53.908Z,24.40
2018-04-20T13:43:21.668Z,23.25
2018-04-20T13:45:50.262Z,24.22
2018-04-20T13:48:17.952Z,24.60
2018-04-20T13:50:49.018Z,25.13
2018-04-20T13:53:16.729Z,24.77
2018-04-20T13:55:49.316Z,24.26
2018-04-20T13:58:16.999Z,24.24
2018-04-20T14:00:44.663Z,24.01
2018-04-20T14:03:12.473Z,23.56
2018-04-20T14:05:40.301Z,23.32
2018-04-20T14:08:07.942Z,24.18
2018-04-20T14:10:36.770Z,22.70
2018-04-20T14:13:04.449Z,22.49
2018-04-20T14:15:32.614Z,22.90
2018-04-20T14:18:00.297Z,23.39
2018-04-20T14:20:27.973Z,22.60
2018-04-20T14:22:55.818Z,21.72
2018-04-20T14:25:27.664Z,22.41
2018-04-20T14:27:55.285Z,22.37
2018-04-20T14:30:23.194Z,21.89
2018-04-20T14:32:50.890Z,21.71
2018-04-20T14:35:19.420Z,21.25
2018-04-20T14:37:48.285Z,21.91
2018-04-20T14:40:15.974Z,21.93
2018-04-20T14:45:17.325Z,21.29
2018-04-20T14:47:45.129Z,21.61
2018-04-20T14:50:12.865Z,21.17
2018-04-20T14:52:47.743Z,20.37
2018-04-20T14:55:16.440Z,20.43
2018-04-20T14:57:44.278Z,21.28
2018-04-20T15:00:12.807Z,21.49
2018-04-20T15:02:40.512Z,21.32
2018-04-20T15:05:13.082Z,20.56
2018-04-20T15:07:40.755Z,20.42
2018-04-20T15:10:08.408Z,20.74
2018-04-20T15:12:37.504Z,20.72
2018-04-20T15:15:05.795Z,20.30
2018-04-20T15:17:33.443Z,19.61
2018-04-20T15:20:01.220Z,19.82
2018-04-20T15:22:29.406Z,20.26
2018-04-20T15:24:57.041Z,21.29
2018-04-20T15:27:24.846Z,21.17
2018-04-20T15:29:52.635Z,20.04
2018-04-20T15:32:20.218Z,19.93
2018-04-20T15:34:48.922Z,19.87
2018-04-20T15:37:16.523Z,20.25
2018-04-20T15:39:44.172Z,20.52
2018-04-20T15:42:12.130Z,20.74
2018-04-20T15:44:39.797Z,20.54
2018-04-20T15:47:07.580Z,22.13
2018-04-20T15:49:35.154Z,21.87
2018-04-20T15:52:02.838Z,22.72
2018-04-20T15:54:30.503Z,22.51
2018-04-20T15:56:58.134Z,23.11
2018-04-20T15:59:26.687Z,23.13
2018-04-20T16:01:54.464Z,22.88
2018-04-20T16:04:23.473Z,23.10
2018-04-20T16:06:51.173Z,23.82
2018-04-20T16:09:18.868Z,23.57
2018-04-20T16:11:46.654Z,23.51
2018-04-20T16:14:14.408Z,23.83
2018-04-20T16:16:42.102Z,23.74
2018-04-20T16:19:09.715Z,22.42
2018-04-20T16:21:38.244Z,22.01
2018-04-20T16:24:05.861Z,21.03
2018-04-20T16:26:33.715Z,21.74
2018-04-20T16:29:01.345Z,22.10
2018-04-20T16:31:28.987Z,21.69
2018-04-20T16:36:30.365Z,21.01
2018-04-20T16:38:58.117Z,21.43
2018-04-20T16:41:25.738Z,21.31
2018-04-20T16:43:53.389Z,21.62
2018-04-20T16:46:21.079Z,21.70
2018-04-20T16:48:48.699Z,22.64
2018-04-20T16:51:17.683Z,24.61
2018-04-20T16:53:45.340Z,25.26
2018-04-20T16:56:13.584Z,27.06
2018-04-20T16:58:41.246Z,27.72
2018-04-20T17:01:08.904Z,28.34
2018-04-20T17:03:36.546Z,29.12
2018-04-20T17:06:04.213Z,29.89
2018-04-20T17:08:31.932Z,30.64
2018-04-20T17:10:59.611Z,31.65
2018-04-20T17:13:27.229Z,32.29
2018-04-20T17:15:54.857Z,33.18
2018-04-20T17:18:22.577Z,33.68
2018-04-20T17:20:50.177Z,34.19
2018-04-20T17:23:17.840Z,34.48
2018-04-20T17:25:45.527Z,34.73
2018-04-20T17:28:13.171Z,35.00
2018-04-20T17:30:41.744Z,34.81
2018-04-20T17:33:09.495Z,34.23
2018-04-20T17:35:37.126Z,34.65
2018-04-20T17:40:39.440Z,34.90
2018-04-20T17:43:07.092Z,35.01
2018-04-20T17:45:34.786Z,36.14
2018-04-20T17:48:02.445Z,36.98
2018-04-20T17:50:30.048Z,37.41
2018-04-20T17:52:57.773Z,38.12
2018-04-20T17:55:25.377Z,38.77
2018-04-20T17:57:53.037Z,39.58
2018-04-20T18:00:20.675Z,40.22
2018-04-20T18:02:49.766Z,40.46
2018-04-20T18:05:17.354Z,40.59
2018-04-20T18:07:44.943Z,40.64
2018-04-20T18:10:12.540Z,40.29
2018-04-20T18:12:40.176Z,41.43
2018-04-20T18:15:07.794Z,41.84
2018-04-20T18:17:35.573Z,42.34
2018-04-20T18:20:03.193Z,42.78
2018-04-20T18:22:30.919Z,43.47
2018-04-20T18:24:58.598Z,43.25
2018-04-20T18:27:27.251Z,43.38
2018-04-20T18:29:55.147Z,43.55
2018-04-20T18:32:22.772Z,43.54
2018-04-20T18:34:50.429Z,44.65
2018-04-20T18:37:18.121Z,44.95
2018-04-20T18:39:47.104Z,45.31
2018-04-20T18:42:14.682Z,45.85
2018-04-20T18:44:42.606Z,46.15
2018-04-20T18:47:11.373Z,46.30
2018-04-20T18:49:39.695Z,46.15
2018-04-20T18:52:07.468Z,45.74
2018-04-20T18:54:35.166Z,45.43
2018-04-20T18:57:04.727Z,45.46
2018-04-20T18:59:33.291Z,44.72
2018-04-20T19:02:07.184Z,44.94
2018-04-20T19:04:35.020Z,45.83
2018-04-20T19:07:02.752Z,46.33
2018-04-20T19:09:30.532Z,46.92
2018-04-20T19:11:58.266Z,46.80
2018-04-20T19:14:26.013Z,47.28
2018-04-20T19:16:54.644Z,47.19
2018-04-20T19:19:22.287Z,47.23
2018-04-20T19:21:49.984Z,46.55
2018-04-20T19:24:17.542Z,46.91
2018-04-20T19:26:45.362Z,48.10
2018-04-20T19:29:12.975Z,47.78
2018-04-20T19:31:41.161Z,47.77
2018-04-20T19:34:10.533Z,47.79
2018-04-20T19:36:39.096Z,47.61
2018-04-20T19:39:06.757Z,48.21
2018-04-20T19:41:35.453Z,48.30
2018-04-20T19:44:02.956Z,48.59
2018-04-20T19:46:30.515Z,49.23
2018-04-20T19:49:00.609Z,49.56
2018-04-20T19:51:33.476Z,49.70
2018-04-20T19:54:01.212Z,50.30
2018-04-20T19:56:29.123Z,50.07
2018-04-20T19:58:56.775Z,50.34
2018-04-20T20:01:24.469Z,51.26
2018-04-20T20:03:52.071Z,51.26
2018-04-20T20:06:19.661Z,51.62
2018-04-20T20:08:47.320Z,51.99
2018-04-20T20:11:15.321Z,53.04
2018-04-20T20:13:42.884Z,53.70
2018-04-20T20:16:10.421Z,54.32
2018-04-20T20:18:38.027Z,53.57
2018-04-20T20:21:05.736Z,52.96
2018-04-20T20:26:07.122Z,52.37
2018-04-20T20:28:34.917Z,52.47
2018-04-20T20:31:02.527Z,52.80
2018-04-20T20:33:30.170Z,52.64
2018-04-20T20:35:57.833Z,52.11
2018-04-20T20:38:25.496Z,51.92
2018-04-20T20:40:53.131Z,51.59
2018-04-20T20:43:20.778Z,51.42
2018-04-20T20:45:48.406Z,52.00
2018-04-20T20:48:16.040Z,52.01
2018-04-20T20:50:43.709Z,52.38
2018-04-20T20:53:14.482Z,52.20
2018-04-20T20:55:42.022Z,52.51
2018-04-20T20:58:09.667Z,52.77
2018-04-20T21:00:38.328Z,53.85
2018-04-20T21:03:06.014Z,54.46
2018-04-20T21:05:33.817Z,54.52
2018-04-20T21:08:01.348Z,54.16
2018-04-20T21:10:28.896Z,54.03
2018-04-20T21:12:56.502Z,54.44
2018-04-20T21:15:24.033Z,53.99
2018-04-20T21:17:51.657Z,53.50
2018-04-20T21:20:19.311Z,53.45
2018-04-20T21:22:47.480Z,53.12
2018-04-20T21:25:15.239Z,53.44
2018-04-20T21:27:42.924Z,53.91
2018-04-20T21:30:10.495Z,53.84
2018-04-20T21:32:38.047Z,54.17
2018-04-20T21:35:05.614Z,54.09
2018-04-20T21:37:33.216Z,53.86
2018-04-20T21:40:00.753Z,54.05
2018-04-20T21:42:28.321Z,54.10
2018-04-20T21:44:55.853Z,54.17
2018-04-20T21:47:24.237Z,54.64
2018-04-20T21:49:51.848Z,54.66
2018-04-20T21:52:19.510Z,54.54
2018-04-20T21:54:47.140Z,54.61
2018-04-20T21:57:14.901Z,54.53
2018-04-20T21:59:43.353Z,54.61
2018-04-20T22:02:10.929Z,54.71
2018-04-20T22:04:40.097Z,55.53
2018-04-20T22:07:07.891Z,56.06
2018-04-20T22:09:37.381Z,56.17
2018-04-20T22:12:06.134Z,55.70
2018-04-20T22:14:33.783Z,55.30
2018-04-20T22:17:01.408Z,54.99
2018-04-20T22:19:28.986Z,55.35
2018-04-20T22:21:56.619Z,56.03
2018-04-20T22:24:24.330Z,56.15
2018-04-20T22:26:51.976Z,56.01
2018-04-20T22:29:19.611Z,55.97
2018-04-20T22:31:48.029Z,56.28
2018-04-20T22:34:15.731Z,56.13
2018-04-20T22:36:43.310Z,56.24
2018-04-20T22:39:14.614Z,56.25
2018-04-20T22:41:42.384Z,56.54
2018-04-20T22:44:10.006Z,56.59
2018-04-20T22:46:37.672Z,56.57
2018-04-20T22:49:05.340Z,56.83
2018-04-20T22:51:32.909Z,56.60
2018-04-20T22:54:00.529Z,56.92
2018-04-20T22:56:28.273Z,57.03
2018-04-20T22:58:55.872Z,57.04
2018-04-20T23:01:23.549Z,57.30
2018-04-20T23:03:51.241Z,57.62
2018-04-20T23:06:18.896Z,57.61
2018-04-20T23:08:46.559Z,57.21
2018-04-20T23:11:14.647Z,57.17
2018-04-20T23:13:42.273Z,57.47
2018-04-20T23:16:09.822Z,56.82
2018-04-20T23:18:37.357Z,56.62
2018-04-20T23:21:04.971Z,57.05
2018-04-20T23:23:32.689Z,56.79
2018-04-20T23:26:00.482Z,57.17
2018-04-20T23:28:28.185Z,57.13
2018-04-20T23:30:55.802Z,57.08
2018-04-20T23:33:24.377Z,57.15
2018-04-20T23:36:08.313Z,57.17
2018-04-20T23:38:35.895Z,57.58
2018-04-20T23:41:03.565Z,57.33
2018-04-20T23:43:31.157Z,57.27
2018-04-20T23:45:58.817Z,57.97
2018-04-20T23:48:26.465Z,57.83
2018-04-20T23:50:54.086Z,57.84
2018-04-20T23:53:21.754Z,57.90
2018-04-20T23:55:49.432Z,57.91
2018-04-20T23:58:18.393Z,57.74
